sensor_id;sensor_type;location;lat;lon;timestamp;P1;durP1;ratioP1;P2;durP2;ratioP2
15667;SDS011;7934;48.710;9.024;2024-03-22T00:02:01;28.83;;;17.10;;
15667;SDS011;7934;48.710;9.024;2024-03-22T00:04:50;26.90;;;16.70;;
15667;SDS011;7934;48.710;9.024;2024-03-22T00:22:31;25.50;;;16.03;;
15667;SDS011;7934;48.710;9.024;2024-03-22T00:25:13;21.00;;;15.37;;
15667;SDS011;7934;48.710;9.024;2024-03-22T00:27:53;31.23;;;15.33;;
15667;SDS011;7934;48.710;9.024;2024-03-22T00:30:20;23.83;;;14.73;;
15667;SDS011;7934;48.710;9.024;2024-03-22T00:32:46;24.47;;;14.43;;
15667;SDS011;7934;48.710;9.024;2024-03-22T00:35:28;20.20;;;12.83;;
15667;SDS011;7934;48.710;9.024;2024-03-22T01:19:12;19.47;;;12.80;;
15667;SDS011;7934;48.710;9.024;2024-03-22T01:21:38;17.43;;;13.17;;
15667;SDS011;7934;48.710;9.024;2024-03-22T01:24:39;19.80;;;13.43;;
15667;SDS011;7934;48.710;9.024;2024-03-22T01:27:20;20.73;;;13.37;;
15667;SDS011;7934;48.710;9.024;2024-03-22T01:30:02;22.13;;;14.43;;
15667;SDS011;7934;48.710;9.024;2024-03-22T01:33:03;24.13;;;14.43;;
15667;SDS011;7934;48.710;9.024;2024-03-22T01:59:37;23.07;;;14.43;;
15667;SDS011;7934;48.710;9.024;2024-03-22T02:02:08;25.70;;;16.50;;
15667;SDS011;7934;48.710;9.024;2024-03-22T02:04:36;23.93;;;15.73;;
15667;SDS011;7934;48.710;9.024;2024-03-22T02:07:17;28.00;;;14.83;;
15667;SDS011;7934;48.710;9.024;2024-03-22T02:10:18;26.77;;;15.17;;
15667;SDS011;7934;48.710;9.024;2024-03-22T02:13:20;23.53;;;15.47;;
15667;SDS011;7934;48.710;9.024;2024-03-22T02:28:07;24.10;;;15.27;;
15667;SDS011;7934;48.710;9.024;2024-03-22T02:30:48;21.50;;;14.97;;
15667;SDS011;7934;48.710;9.024;2024-03-22T02:33:29;28.77;;;17.17;;
15667;SDS011;7934;48.710;9.024;2024-03-22T02:36:31;27.93;;;15.53;;
15667;SDS011;7934;48.710;9.024;2024-03-22T02:39:12;26.03;;;14.97;;
15667;SDS011;7934;48.710;9.024;2024-03-22T02:41:53;20.33;;;14.27;;
15667;SDS011;7934;48.710;9.024;2024-03-22T04:01:10;27.03;;;16.00;;
15667;SDS011;7934;48.710;9.024;2024-03-22T04:03:55;27.80;;;16.63;;
15667;SDS011;7934;48.710;9.024;2024-03-22T04:06:22;26.17;;;16.57;;
15667;SDS011;7934;48.710;9.024;2024-03-22T04:08:52;28.77;;;16.13;;
15667;SDS011;7934;48.710;9.024;2024-03-22T04:11:23;28.67;;;16.67;;
15667;SDS011;7934;48.710;9.024;2024-03-22T04:14:13;23.53;;;14.50;;
15667;SDS011;7934;48.710;9.024;2024-03-22T04:37:55;26.87;;;16.20;;
15667;SDS011;7934;48.710;9.024;2024-03-22T04:40:22;23.93;;;16.67;;
15667;SDS011;7934;48.710;9.024;2024-03-22T04:42:56;32.33;;;16.33;;
15667;SDS011;7934;48.710;9.024;2024-03-22T04:45:24;25.57;;;16.00;;
15667;SDS011;7934;48.710;9.024;2024-03-22T04:48:06;24.30;;;15.50;;
15667;SDS011;7934;48.710;9.024;2024-03-22T04:51:07;26.60;;;15.87;;
15667;SDS011;7934;48.710;9.024;2024-03-22T06:01:18;26.97;;;15.77;;
15667;SDS011;7934;48.710;9.024;2024-03-22T06:03:59;26.50;;;16.67;;
15667;SDS011;7934;48.710;9.024;2024-03-22T06:06:26;25.70;;;16.37;;
15667;SDS011;7934;48.710;9.024;2024-03-22T06:08:53;24.10;;;16.00;;
15667;SDS011;7934;48.710;9.024;2024-03-22T06:11:34;26.20;;;16.27;;
15667;SDS011;7934;48.710;9.024;2024-03-22T06:14:16;26.23;;;16.37;;
15667;SDS011;7934;48.710;9.024;2024-03-22T06:17:02;22.53;;;14.70;;
15667;SDS011;7934;48.710;9.024;2024-03-22T06:20:10;25.07;;;15.57;;
15667;SDS011;7934;48.710;9.024;2024-03-22T06:22:20;21.30;;;14.80;;
15667;SDS011;7934;48.710;9.024;2024-03-22T06:24:52;17.17;;;14.20;;
15667;SDS011;7934;48.710;9.024;2024-03-22T06:27:18;26.53;;;13.93;;
15667;SDS011;7934;48.710;9.024;2024-03-22T06:30:00;21.83;;;14.47;;
15667;SDS011;7934;48.710;9.024;2024-03-22T07:49:20;11.17;;;7.70;;
15667;SDS011;7934;48.710;9.024;2024-03-22T07:52:05;14.17;;;8.03;;
15667;SDS011;7934;48.710;9.024;2024-03-22T07:54:48;18.53;;;7.57;;
15667;SDS011;7934;48.710;9.024;2024-03-22T07:57:35;9.43;;;8.00;;
15667;SDS011;7934;48.710;9.024;2024-03-22T08:00:16;10.47;;;7.53;;
15667;SDS011;7934;48.710;9.024;2024-03-22T08:02:57;13.67;;;7.37;;
15667;SDS011;7934;48.710;9.024;2024-03-22T08:29:16;7.67;;;6.33;;
15667;SDS011;7934;48.710;9.024;2024-03-22T08:31:44;9.97;;;6.63;;
15667;SDS011;7934;48.710;9.024;2024-03-22T08:34:14;7.70;;;6.60;;
15667;SDS011;7934;48.710;9.024;2024-03-22T08:36:45;10.77;;;7.23;;
15667;SDS011;7934;48.710;9.024;2024-03-22T08:39:12;7.93;;;7.07;;
15667;SDS011;7934;48.710;9.024;2024-03-22T08:41:41;10.17;;;7.40;;
15667;SDS011;7934;48.710;9.024;2024-03-22T08:44:07;17.20;;;7.70;;
15667;SDS011;7934;48.710;9.024;2024-03-22T08:46:36;8.13;;;7.10;;
15667;SDS011;7934;48.710;9.024;2024-03-22T08:49:02;8.50;;;6.53;;
15667;SDS011;7934;48.710;9.024;2024-03-22T08:51:30;8.20;;;7.30;;
15667;SDS011;7934;48.710;9.024;2024-03-22T08:53:56;12.20;;;6.90;;
15667;SDS011;7934;48.710;9.024;2024-03-22T08:56:23;13.93;;;7.27;;
15667;SDS011;7934;48.710;9.024;2024-03-22T08:58:49;7.90;;;7.10;;
15667;SDS011;7934;48.710;9.024;2024-03-22T09:01:17;7.20;;;6.43;;
15667;SDS011;7934;48.710;9.024;2024-03-22T09:03:44;9.97;;;6.83;;
15667;SDS011;7934;48.710;9.024;2024-03-22T09:06:11;12.93;;;7.30;;
15667;SDS011;7934;48.710;9.024;2024-03-22T09:08:37;7.87;;;6.53;;
15667;SDS011;7934;48.710;9.024;2024-03-22T09:11:05;7.00;;;6.33;;
15667;SDS011;7934;48.710;9.024;2024-03-22T09:13:31;13.97;;;6.10;;
15667;SDS011;7934;48.710;9.024;2024-03-22T09:16:00;8.20;;;6.27;;
15667;SDS011;7934;48.710;9.024;2024-03-22T09:18:26;6.60;;;6.00;;
15667;SDS011;7934;48.710;9.024;2024-03-22T09:20:55;11.13;;;6.00;;
15667;SDS011;7934;48.710;9.024;2024-03-22T09:23:21;8.63;;;5.13;;
15667;SDS011;7934;48.710;9.024;2024-03-22T09:25:49;8.07;;;5.20;;
15667;SDS011;7934;48.710;9.024;2024-03-22T09:28:15;8.33;;;6.17;;
15667;SDS011;7934;48.710;9.024;2024-03-22T09:30:42;11.07;;;5.83;;
15667;SDS011;7934;48.710;9.024;2024-03-22T09:33:08;7.07;;;5.30;;
15667;SDS011;7934;48.710;9.024;2024-03-22T09:35:36;7.17;;;6.30;;
15667;SDS011;7934;48.710;9.024;2024-03-22T09:38:03;10.10;;;5.57;;
15667;SDS011;7934;48.710;9.024;2024-03-22T09:40:31;12.60;;;5.63;;
15667;SDS011;7934;48.710;9.024;2024-03-22T09:42:58;6.23;;;5.63;;
15667;SDS011;7934;48.710;9.024;2024-03-22T09:45:29;7.80;;;5.77;;
15667;SDS011;7934;48.710;9.024;2024-03-22T09:47:55;6.10;;;5.27;;
15667;SDS011;7934;48.710;9.024;2024-03-22T09:50:23;7.70;;;5.77;;
15667;SDS011;7934;48.710;9.024;2024-03-22T09:52:49;11.30;;;6.43;;
15667;SDS011;7934;48.710;9.024;2024-03-22T09:55:20;6.53;;;5.93;;
15667;SDS011;7934;48.710;9.024;2024-03-22T09:57:50;7.87;;;5.70;;
15667;SDS011;7934;48.710;9.024;2024-03-22T10:00:19;7.67;;;6.93;;
15667;SDS011;7934;48.710;9.024;2024-03-22T10:02:47;8.37;;;6.70;;
15667;SDS011;7934;48.710;9.024;2024-03-22T10:05:15;6.20;;;5.60;;
15667;SDS011;7934;48.710;9.024;2024-03-22T10:07:42;5.70;;;5.20;;
15667;SDS011;7934;48.710;9.024;2024-03-22T10:10:10;6.17;;;4.70;;
15667;SDS011;7934;48.710;9.024;2024-03-22T10:12:38;7.87;;;5.93;;
15667;SDS011;7934;48.710;9.024;2024-03-22T10:15:06;7.00;;;5.53;;
15667;SDS011;7934;48.710;9.024;2024-03-22T10:17:34;4.57;;;3.60;;
15667;SDS011;7934;48.710;9.024;2024-03-22T10:20:01;4.33;;;3.93;;
15667;SDS011;7934;48.710;9.024;2024-03-22T10:22:28;5.10;;;4.40;;
15667;SDS011;7934;48.710;9.024;2024-03-22T10:24:55;4.50;;;4.10;;
15667;SDS011;7934;48.710;9.024;2024-03-22T10:27:26;4.43;;;4.00;;
15667;SDS011;7934;48.710;9.024;2024-03-22T10:29:53;6.33;;;5.17;;
15667;SDS011;7934;48.710;9.024;2024-03-22T10:32:21;5.77;;;4.57;;
15667;SDS011;7934;48.710;9.024;2024-03-22T10:34:49;6.47;;;4.93;;
15667;SDS011;7934;48.710;9.024;2024-03-22T10:37:30;4.87;;;4.47;;
15667;SDS011;7934;48.710;9.024;2024-03-22T10:40:01;4.97;;;4.47;;
15667;SDS011;7934;48.710;9.024;2024-03-22T10:42:32;5.03;;;4.40;;
15667;SDS011;7934;48.710;9.024;2024-03-22T10:45:01;5.53;;;4.87;;
15667;SDS011;7934;48.710;9.024;2024-03-22T10:47:29;5.67;;;4.70;;
15667;SDS011;7934;48.710;9.024;2024-03-22T10:49:58;4.77;;;4.33;;
15667;SDS011;7934;48.710;9.024;2024-03-22T10:52:26;5.50;;;4.00;;
15667;SDS011;7934;48.710;9.024;2024-03-22T10:54:54;6.90;;;4.40;;
15667;SDS011;7934;48.710;9.024;2024-03-22T10:57:25;8.63;;;4.60;;
15667;SDS011;7934;48.710;9.024;2024-03-22T10:59:54;8.17;;;5.23;;
15667;SDS011;7934;48.710;9.024;2024-03-22T11:02:27;6.47;;;4.73;;
15667;SDS011;7934;48.710;9.024;2024-03-22T11:04:58;7.40;;;5.23;;
15667;SDS011;7934;48.710;9.024;2024-03-22T11:07:28;5.97;;;4.93;;
15667;SDS011;7934;48.710;9.024;2024-03-22T11:10:09;6.60;;;5.57;;
15667;SDS011;7934;48.710;9.024;2024-03-22T11:12:38;6.37;;;4.53;;
15667;SDS011;7934;48.710;9.024;2024-03-22T11:15:05;5.07;;;3.67;;
15667;SDS011;7934;48.710;9.024;2024-03-22T11:17:35;4.50;;;3.90;;
15667;SDS011;7934;48.710;9.024;2024-03-22T11:20:01;3.43;;;3.13;;
15667;SDS011;7934;48.710;9.024;2024-03-22T11:22:31;4.40;;;3.20;;
15667;SDS011;7934;48.710;9.024;2024-03-22T11:24:57;4.33;;;3.30;;
15667;SDS011;7934;48.710;9.024;2024-03-22T11:27:38;3.40;;;3.00;;
15667;SDS011;7934;48.710;9.024;2024-03-22T11:30:07;3.20;;;3.00;;
15667;SDS011;7934;48.710;9.024;2024-03-22T11:32:37;2.93;;;2.70;;
15667;SDS011;7934;48.710;9.024;2024-03-22T11:35:09;3.73;;;3.20;;
15667;SDS011;7934;48.710;9.024;2024-03-22T11:37:38;4.70;;;3.47;;
15667;SDS011;7934;48.710;9.024;2024-03-22T11:40:19;3.13;;;2.87;;
15667;SDS011;7934;48.710;9.024;2024-03-22T11:42:49;3.43;;;3.23;;
15667;SDS011;7934;48.710;9.024;2024-03-22T11:45:17;3.83;;;3.17;;
15667;SDS011;7934;48.710;9.024;2024-03-22T11:47:48;3.60;;;3.33;;
15667;SDS011;7934;48.710;9.024;2024-03-22T11:50:14;3.90;;;3.60;;
15667;SDS011;7934;48.710;9.024;2024-03-22T11:52:42;3.30;;;3.00;;
15667;SDS011;7934;48.710;9.024;2024-03-22T11:55:09;5.83;;;3.07;;
15667;SDS011;7934;48.710;9.024;2024-03-22T11:57:37;3.40;;;3.10;;
15667;SDS011;7934;48.710;9.024;2024-03-22T12:00:04;3.20;;;3.00;;
15667;SDS011;7934;48.710;9.024;2024-03-22T12:02:35;2.73;;;2.50;;
15667;SDS011;7934;48.710;9.024;2024-03-22T12:05:03;3.93;;;3.53;;
15667;SDS011;7934;48.710;9.024;2024-03-22T12:07:32;5.97;;;3.57;;
15667;SDS011;7934;48.710;9.024;2024-03-22T12:09:58;5.83;;;3.67;;
15667;SDS011;7934;48.710;9.024;2024-03-22T12:12:26;3.58;;;3.05;;
15667;SDS011;7934;48.710;9.024;2024-03-22T12:14:52;3.23;;;3.07;;
15667;SDS011;7934;48.710;9.024;2024-03-22T12:17:20;4.30;;;3.23;;
15667;SDS011;7934;48.710;9.024;2024-03-22T12:19:46;4.07;;;2.80;;
15667;SDS011;7934;48.710;9.024;2024-03-22T12:22:16;3.37;;;3.07;;
15667;SDS011;7934;48.710;9.024;2024-03-22T12:24:42;3.27;;;3.07;;
15667;SDS011;7934;48.710;9.024;2024-03-22T12:27:10;4.78;;;3.50;;
15667;SDS011;7934;48.710;9.024;2024-03-22T12:29:36;3.43;;;2.90;;
15667;SDS011;7934;48.710;9.024;2024-03-22T12:32:03;2.97;;;2.77;;
15667;SDS011;7934;48.710;9.024;2024-03-22T12:34:30;7.53;;;3.70;;
15667;SDS011;7934;48.710;9.024;2024-03-22T12:36:58;9.00;;;3.87;;
15667;SDS011;7934;48.710;9.024;2024-03-22T12:39:27;5.80;;;3.60;;
15667;SDS011;7934;48.710;9.024;2024-03-22T12:41:54;5.80;;;3.77;;
15667;SDS011;7934;48.710;9.024;2024-03-22T12:44:20;5.27;;;3.97;;
15667;SDS011;7934;48.710;9.024;2024-03-22T12:46:47;5.00;;;4.13;;
15667;SDS011;7934;48.710;9.024;2024-03-22T12:49:16;6.00;;;4.00;;
15667;SDS011;7934;48.710;9.024;2024-03-22T12:51:44;4.30;;;3.50;;
15667;SDS011;7934;48.710;9.024;2024-03-22T12:54:10;5.17;;;3.53;;
15667;SDS011;7934;48.710;9.024;2024-03-22T12:56:40;7.80;;;4.37;;
15667;SDS011;7934;48.710;9.024;2024-03-22T12:59:07;6.27;;;3.70;;
15667;SDS011;7934;48.710;9.024;2024-03-22T13:01:34;5.30;;;4.07;;
15667;SDS011;7934;48.710;9.024;2024-03-22T13:04:01;5.47;;;3.60;;
15667;SDS011;7934;48.710;9.024;2024-03-22T13:06:29;7.93;;;3.27;;
15667;SDS011;7934;48.710;9.024;2024-03-22T13:08:55;2.90;;;2.70;;
15667;SDS011;7934;48.710;9.024;2024-03-22T13:11:22;4.23;;;2.77;;
15667;SDS011;7934;48.710;9.024;2024-03-22T13:13:49;5.80;;;3.60;;
15667;SDS011;7934;48.710;9.024;2024-03-22T13:16:17;3.70;;;2.63;;
15667;SDS011;7934;48.710;9.024;2024-03-22T13:18:43;4.57;;;3.00;;
15667;SDS011;7934;48.710;9.024;2024-03-22T13:21:11;2.87;;;2.67;;
15667;SDS011;7934;48.710;9.024;2024-03-22T13:23:37;3.13;;;2.83;;
15667;SDS011;7934;48.710;9.024;2024-03-22T13:26:05;3.37;;;3.07;;
15667;SDS011;7934;48.710;9.024;2024-03-22T13:28:32;3.07;;;2.83;;
15667;SDS011;7934;48.710;9.024;2024-03-22T13:31:01;3.97;;;2.63;;
15667;SDS011;7934;48.710;9.024;2024-03-22T13:33:28;3.73;;;3.03;;
15667;SDS011;7934;48.710;9.024;2024-03-22T13:36:04;3.57;;;2.73;;
15667;SDS011;7934;48.710;9.024;2024-03-22T13:38:30;3.67;;;3.37;;
15667;SDS011;7934;48.710;9.024;2024-03-22T13:40:58;5.60;;;3.67;;
15667;SDS011;7934;48.710;9.024;2024-03-22T13:43:27;3.60;;;3.20;;
15667;SDS011;7934;48.710;9.024;2024-03-22T13:45:54;3.73;;;3.17;;
15667;SDS011;7934;48.710;9.024;2024-03-22T13:48:22;4.73;;;3.33;;
15667;SDS011;7934;48.710;9.024;2024-03-22T13:50:50;3.27;;;3.07;;
15667;SDS011;7934;48.710;9.024;2024-03-22T13:53:17;5.37;;;2.80;;
15667;SDS011;7934;48.710;9.024;2024-03-22T13:55:44;5.07;;;2.50;;
15667;SDS011;7934;48.710;9.024;2024-03-22T13:58:11;2.87;;;2.63;;
15667;SDS011;7934;48.710;9.024;2024-03-22T14:00:41;4.13;;;2.40;;
15667;SDS011;7934;48.710;9.024;2024-03-22T14:03:07;2.93;;;2.40;;
15667;SDS011;7934;48.710;9.024;2024-03-22T14:05:36;2.73;;;2.40;;
15667;SDS011;7934;48.710;9.024;2024-03-22T14:08:02;2.83;;;2.07;;
15667;SDS011;7934;48.710;9.024;2024-03-22T14:10:31;2.50;;;2.30;;
15667;SDS011;7934;48.710;9.024;2024-03-22T14:12:57;2.97;;;2.27;;
15667;SDS011;7934;48.710;9.024;2024-03-22T14:15:24;3.27;;;2.10;;
15667;SDS011;7934;48.710;9.024;2024-03-22T14:17:52;6.10;;;2.40;;
15667;SDS011;7934;48.710;9.024;2024-03-22T14:20:21;2.50;;;1.90;;
15667;SDS011;7934;48.710;9.024;2024-03-22T14:22:49;5.63;;;2.13;;
15667;SDS011;7934;48.710;9.024;2024-03-22T14:25:16;5.00;;;1.90;;
15667;SDS011;7934;48.710;9.024;2024-03-22T14:27:42;2.13;;;1.90;;
15667;SDS011;7934;48.710;9.024;2024-03-22T14:30:11;3.70;;;2.30;;
15667;SDS011;7934;48.710;9.024;2024-03-22T14:32:38;8.33;;;1.60;;
15667;SDS011;7934;48.710;9.024;2024-03-22T14:35:05;2.10;;;1.37;;
15667;SDS011;7934;48.710;9.024;2024-03-22T14:37:32;1.57;;;1.47;;
15667;SDS011;7934;48.710;9.024;2024-03-22T14:40:00;2.87;;;1.43;;
15667;SDS011;7934;48.710;9.024;2024-03-22T14:42:30;1.87;;;1.10;;
15667;SDS011;7934;48.710;9.024;2024-03-22T14:44:57;2.10;;;1.87;;
15667;SDS011;7934;48.710;9.024;2024-03-22T14:47:25;3.90;;;2.60;;
15667;SDS011;7934;48.710;9.024;2024-03-22T14:49:51;2.50;;;2.30;;
15667;SDS011;7934;48.710;9.024;2024-03-22T14:52:21;2.97;;;2.20;;
15667;SDS011;7934;48.710;9.024;2024-03-22T14:54:48;2.63;;;2.40;;
15667;SDS011;7934;48.710;9.024;2024-03-22T14:57:22;2.40;;;2.20;;
15667;SDS011;7934;48.710;9.024;2024-03-22T14:59:48;1.60;;;1.50;;
15667;SDS011;7934;48.710;9.024;2024-03-22T15:02:17;2.37;;;1.77;;
15667;SDS011;7934;48.710;9.024;2024-03-22T15:04:44;5.57;;;1.60;;
15667;SDS011;7934;48.710;9.024;2024-03-22T15:07:11;1.40;;;1.30;;
15667;SDS011;7934;48.710;9.024;2024-03-22T15:09:37;2.83;;;1.30;;
15667;SDS011;7934;48.710;9.024;2024-03-22T15:12:05;2.83;;;1.40;;
15667;SDS011;7934;48.710;9.024;2024-03-22T15:14:36;1.90;;;1.23;;
15667;SDS011;7934;48.710;9.024;2024-03-22T15:17:03;5.00;;;1.87;;
15667;SDS011;7934;48.710;9.024;2024-03-22T15:19:30;3.10;;;1.40;;
15667;SDS011;7934;48.710;9.024;2024-03-22T15:21:56;1.70;;;1.60;;
15667;SDS011;7934;48.710;9.024;2024-03-22T15:24:32;5.33;;;1.50;;
15667;SDS011;7934;48.710;9.024;2024-03-22T15:26:59;1.50;;;1.40;;
15667;SDS011;7934;48.710;9.024;2024-03-22T15:29:26;2.13;;;1.47;;
15667;SDS011;7934;48.710;9.024;2024-03-22T15:31:55;1.77;;;1.67;;
15667;SDS011;7934;48.710;9.024;2024-03-22T15:34:22;3.10;;;1.43;;
15667;SDS011;7934;48.710;9.024;2024-03-22T15:36:49;1.47;;;1.40;;
15667;SDS011;7934;48.710;9.024;2024-03-22T15:39:16;1.80;;;1.70;;
15667;SDS011;7934;48.710;9.024;2024-03-22T15:41:44;2.70;;;1.20;;
15667;SDS011;7934;48.710;9.024;2024-03-22T15:44:10;4.93;;;1.60;;
15667;SDS011;7934;48.710;9.024;2024-03-22T15:46:38;3.03;;;1.70;;
15667;SDS011;7934;48.710;9.024;2024-03-22T15:49:05;1.53;;;1.43;;
15667;SDS011;7934;48.710;9.024;2024-03-22T15:51:32;3.10;;;1.80;;
15667;SDS011;7934;48.710;9.024;2024-03-22T15:53:59;3.53;;;1.73;;
15667;SDS011;7934;48.710;9.024;2024-03-22T15:56:26;4.20;;;1.60;;
15667;SDS011;7934;48.710;9.024;2024-03-22T15:58:52;4.23;;;1.80;;
15667;SDS011;7934;48.710;9.024;2024-03-22T16:01:19;1.87;;;1.60;;
15667;SDS011;7934;48.710;9.024;2024-03-22T16:03:46;2.03;;;1.70;;
15667;SDS011;7934;48.710;9.024;2024-03-22T16:06:14;2.87;;;1.60;;
15667;SDS011;7934;48.710;9.024;2024-03-22T16:08:40;1.90;;;1.60;;
15667;SDS011;7934;48.710;9.024;2024-03-22T16:11:08;1.97;;;1.73;;
15667;SDS011;7934;48.710;9.024;2024-03-22T16:13:34;2.03;;;1.83;;
15667;SDS011;7934;48.710;9.024;2024-03-22T16:16:01;3.40;;;1.70;;
15667;SDS011;7934;48.710;9.024;2024-03-22T16:18:27;2.27;;;1.63;;
15667;SDS011;7934;48.710;9.024;2024-03-22T16:20:54;1.30;;;1.30;;
15667;SDS011;7934;48.710;9.024;2024-03-22T16:23:22;2.50;;;2.07;;
15667;SDS011;7934;48.710;9.024;2024-03-22T16:25:49;1.60;;;1.50;;
15667;SDS011;7934;48.710;9.024;2024-03-22T16:28:16;1.70;;;1.40;;
15667;SDS011;7934;48.710;9.024;2024-03-22T16:30:43;3.20;;;1.60;;
15667;SDS011;7934;48.710;9.024;2024-03-22T16:33:09;3.40;;;1.50;;
15667;SDS011;7934;48.710;9.024;2024-03-22T16:35:37;3.80;;;2.00;;
15667;SDS011;7934;48.710;9.024;2024-03-22T16:38:03;4.03;;;1.93;;
15667;SDS011;7934;48.710;9.024;2024-03-22T16:40:34;2.83;;;1.40;;
15667;SDS011;7934;48.710;9.024;2024-03-22T16:43:00;1.60;;;1.50;;
15667;SDS011;7934;48.710;9.024;2024-03-22T16:45:27;2.70;;;1.83;;
15667;SDS011;7934;48.710;9.024;2024-03-22T16:47:54;1.63;;;1.53;;
15667;SDS011;7934;48.710;9.024;2024-03-22T16:50:21;2.00;;;1.73;;
15667;SDS011;7934;48.710;9.024;2024-03-22T16:52:47;3.43;;;1.87;;
15667;SDS011;7934;48.710;9.024;2024-03-22T16:55:15;5.40;;;2.00;;
15667;SDS011;7934;48.710;9.024;2024-03-22T16:57:44;8.20;;;1.90;;
15667;SDS011;7934;48.710;9.024;2024-03-22T17:00:12;2.23;;;1.97;;
15667;SDS011;7934;48.710;9.024;2024-03-22T17:02:39;2.10;;;1.90;;
15667;SDS011;7934;48.710;9.024;2024-03-22T17:05:07;2.23;;;1.70;;
15667;SDS011;7934;48.710;9.024;2024-03-22T17:07:34;1.60;;;1.50;;
15667;SDS011;7934;48.710;9.024;2024-03-22T17:10:01;2.47;;;1.80;;
15667;SDS011;7934;48.710;9.024;2024-03-22T17:12:27;4.40;;;1.90;;
15667;SDS011;7934;48.710;9.024;2024-03-22T17:14:56;3.97;;;1.97;;
15667;SDS011;7934;48.710;9.024;2024-03-22T17:17:23;2.83;;;1.90;;
15667;SDS011;7934;48.710;9.024;2024-03-22T17:19:50;2.50;;;2.20;;
15667;SDS011;7934;48.710;9.024;2024-03-22T17:22:17;3.00;;;1.60;;
15667;SDS011;7934;48.710;9.024;2024-03-22T17:24:45;4.73;;;2.03;;
15667;SDS011;7934;48.710;9.024;2024-03-22T17:27:14;3.83;;;1.93;;
15667;SDS011;7934;48.710;9.024;2024-03-22T17:29:41;4.33;;;2.10;;
15667;SDS011;7934;48.710;9.024;2024-03-22T17:32:09;2.30;;;2.10;;
15667;SDS011;7934;48.710;9.024;2024-03-22T17:34:37;4.00;;;2.13;;
15667;SDS011;7934;48.710;9.024;2024-03-22T17:37:03;5.77;;;2.50;;
15667;SDS011;7934;48.710;9.024;2024-03-22T17:39:30;2.53;;;2.33;;
15667;SDS011;7934;48.710;9.024;2024-03-22T17:41:56;3.13;;;2.10;;
15667;SDS011;7934;48.710;9.024;2024-03-22T17:44:24;3.90;;;2.20;;
15667;SDS011;7934;48.710;9.024;2024-03-22T17:46:50;2.53;;;2.10;;
15667;SDS011;7934;48.710;9.024;2024-03-22T17:49:19;2.60;;;1.83;;
15667;SDS011;7934;48.710;9.024;2024-03-22T17:51:45;3.47;;;1.80;;
15667;SDS011;7934;48.710;9.024;2024-03-22T17:54:12;2.10;;;2.00;;
15667;SDS011;7934;48.710;9.024;2024-03-22T17:56:39;1.90;;;1.80;;
15667;SDS011;7934;48.710;9.024;2024-03-22T17:59:07;1.83;;;1.70;;
15667;SDS011;7934;48.710;9.024;2024-03-22T18:01:36;1.93;;;1.70;;
15667;SDS011;7934;48.710;9.024;2024-03-22T18:04:03;4.13;;;2.20;;
15667;SDS011;7934;48.710;9.024;2024-03-22T18:06:31;2.63;;;2.10;;
15667;SDS011;7934;48.710;9.024;2024-03-22T18:08:59;2.33;;;2.13;;
15667;SDS011;7934;48.710;9.024;2024-03-22T18:11:25;2.63;;;2.43;;
15667;SDS011;7934;48.710;9.024;2024-03-22T18:13:52;4.87;;;2.23;;
15667;SDS011;7934;48.710;9.024;2024-03-22T18:16:18;2.57;;;2.37;;
15667;SDS011;7934;48.710;9.024;2024-03-22T18:18:45;2.57;;;2.37;;
15667;SDS011;7934;48.710;9.024;2024-03-22T18:21:12;4.27;;;2.50;;
15667;SDS011;7934;48.710;9.024;2024-03-22T18:23:42;3.53;;;2.40;;
15667;SDS011;7934;48.710;9.024;2024-03-22T18:26:08;2.87;;;2.30;;
15667;SDS011;7934;48.710;9.024;2024-03-22T18:28:36;4.20;;;2.30;;
15667;SDS011;7934;48.710;9.024;2024-03-22T18:31:02;2.73;;;2.37;;
15667;SDS011;7934;48.710;9.024;2024-03-22T18:33:29;5.13;;;2.43;;
15667;SDS011;7934;48.710;9.024;2024-03-22T18:36:01;4.80;;;2.60;;
15667;SDS011;7934;48.710;9.024;2024-03-22T18:38:28;5.67;;;2.93;;
15667;SDS011;7934;48.710;9.024;2024-03-22T18:40:55;5.50;;;2.77;;
15667;SDS011;7934;48.710;9.024;2024-03-22T18:43:23;3.20;;;2.90;;
15667;SDS011;7934;48.710;9.024;2024-03-22T18:45:49;4.80;;;3.53;;
15667;SDS011;7934;48.710;9.024;2024-03-22T18:48:16;2.17;;;1.83;;
15667;SDS011;7934;48.710;9.024;2024-03-22T18:50:43;2.17;;;1.90;;
15667;SDS011;7934;48.710;9.024;2024-03-22T18:53:12;9.23;;;2.00;;
15667;SDS011;7934;48.710;9.024;2024-03-22T18:55:38;6.30;;;3.03;;
15667;SDS011;7934;48.710;9.024;2024-03-22T18:58:07;6.13;;;2.80;;
15667;SDS011;7934;48.710;9.024;2024-03-22T19:00:33;2.10;;;2.00;;
15667;SDS011;7934;48.710;9.024;2024-03-22T19:03:01;3.90;;;3.10;;
15667;SDS011;7934;48.710;9.024;2024-03-22T19:05:28;3.30;;;2.17;;
15667;SDS011;7934;48.710;9.024;2024-03-22T19:07:56;2.77;;;2.03;;
15667;SDS011;7934;48.710;9.024;2024-03-22T19:10:22;2.73;;;2.33;;
15667;SDS011;7934;48.710;9.024;2024-03-22T19:12:49;4.63;;;2.30;;
15667;SDS011;7934;48.710;9.024;2024-03-22T19:15:19;5.47;;;2.37;;
15667;SDS011;7934;48.710;9.024;2024-03-22T19:17:46;2.33;;;2.20;;
15667;SDS011;7934;48.710;9.024;2024-03-22T19:20:12;5.70;;;2.27;;
15667;SDS011;7934;48.710;9.024;2024-03-22T19:22:39;3.13;;;2.43;;
15667;SDS011;7934;48.710;9.024;2024-03-22T19:25:06;5.43;;;2.67;;
15667;SDS011;7934;48.710;9.024;2024-03-22T19:27:34;3.40;;;2.20;;
15667;SDS011;7934;48.710;9.024;2024-03-22T19:30:00;5.27;;;2.37;;
15667;SDS011;7934;48.710;9.024;2024-03-22T19:32:29;2.20;;;2.00;;
15667;SDS011;7934;48.710;9.024;2024-03-22T19:34:55;5.03;;;2.77;;
15667;SDS011;7934;48.710;9.024;2024-03-22T19:37:23;2.27;;;2.17;;
15667;SDS011;7934;48.710;9.024;2024-03-22T19:39:49;3.33;;;2.50;;
15667;SDS011;7934;48.710;9.024;2024-03-22T19:42:17;2.33;;;2.13;;
15667;SDS011;7934;48.710;9.024;2024-03-22T19:44:43;3.60;;;2.60;;
15667;SDS011;7934;48.710;9.024;2024-03-22T19:47:10;2.80;;;2.50;;
15667;SDS011;7934;48.710;9.024;2024-03-22T19:49:38;6.93;;;2.17;;
15667;SDS011;7934;48.710;9.024;2024-03-22T19:52:05;3.50;;;3.00;;
15667;SDS011;7934;48.710;9.024;2024-03-22T19:54:32;2.90;;;2.70;;
15667;SDS011;7934;48.710;9.024;2024-03-22T19:56:59;3.70;;;2.30;;
15667;SDS011;7934;48.710;9.024;2024-03-22T19:59:25;3.57;;;2.70;;
15667;SDS011;7934;48.710;9.024;2024-03-22T20:01:52;3.90;;;2.70;;
15667;SDS011;7934;48.710;9.024;2024-03-22T20:04:19;2.63;;;2.37;;
15667;SDS011;7934;48.710;9.024;2024-03-22T20:06:47;2.80;;;2.60;;
15667;SDS011;7934;48.710;9.024;2024-03-22T20:09:13;3.80;;;2.90;;
15667;SDS011;7934;48.710;9.024;2024-03-22T20:11:43;3.97;;;2.60;;
15667;SDS011;7934;48.710;9.024;2024-03-22T20:14:10;5.87;;;3.87;;
15667;SDS011;7934;48.710;9.024;2024-03-22T20:16:37;4.30;;;3.90;;
15667;SDS011;7934;48.710;9.024;2024-03-22T20:19:04;7.57;;;5.67;;
15667;SDS011;7934;48.710;9.024;2024-03-22T20:21:31;4.33;;;3.77;;
15667;SDS011;7934;48.710;9.024;2024-03-22T20:23:58;4.77;;;4.37;;
15667;SDS011;7934;48.710;9.024;2024-03-22T20:26:27;14.30;;;6.23;;
15667;SDS011;7934;48.710;9.024;2024-03-22T20:28:53;11.63;;;6.03;;
15667;SDS011;7934;48.710;9.024;2024-03-22T20:31:21;6.67;;;5.30;;
15667;SDS011;7934;48.710;9.024;2024-03-22T20:33:48;4.63;;;4.23;;
15667;SDS011;7934;48.710;9.024;2024-03-22T20:36:16;3.80;;;3.40;;
